createdAt,value
2023-05-08T00:02:11.284Z,5.70
2023-05-08T00:04:38.496Z,6.23
2023-05-08T00:07:05.644Z,6.07
2023-05-08T00:09:32.888Z,6.20
2023-05-08T00:12:00.160Z,6.07
2023-05-08T00:14:27.354Z,6.17
2023-05-08T00:16:54.607Z,6.20
2023-05-08T00:19:21.794Z,6.37
2023-05-08T00:21:48.905Z,5.83
2023-05-08T00:24:16.056Z,6.57
2023-05-08T00:26:44.315Z,6.37
2023-05-08T00:29:11.606Z,6.43
2023-05-08T00:31:38.791Z,6.20
2023-05-08T00:34:05.982Z,6.93
2023-05-08T00:36:33.091Z,6.13
2023-05-08T00:39:00.277Z,6.60
2023-05-08T00:41:27.454Z,6.67
2023-05-08T00:43:54.571Z,6.40
2023-05-08T00:46:21.862Z,7.03
2023-05-08T00:48:49.257Z,6.43
2023-05-08T00:51:16.853Z,6.53
2023-05-08T00:53:46.730Z,6.57
2023-05-08T00:56:15.684Z,6.90
2023-05-08T00:58:43.415Z,6.53
2023-05-08T01:01:11.467Z,7.00
2023-05-08T01:03:39.165Z,7.00
2023-05-08T01:06:07.015Z,6.80
2023-05-08T01:08:34.164Z,7.17
2023-05-08T01:11:08.612Z,6.97
2023-05-08T01:13:54.508Z,7.03
2023-05-08T01:16:33.425Z,6.67
2023-05-08T01:19:07.453Z,7.50
2023-05-08T01:21:50.473Z,7.27
2023-05-08T01:24:22.762Z,7.23
2023-05-08T01:26:58.786Z,7.53
2023-05-08T01:29:37.479Z,6.90
2023-05-08T01:32:25.586Z,7.10
2023-05-08T01:35:08.900Z,7.27
2023-05-08T01:37:38.864Z,7.63
2023-05-08T01:40:11.473Z,7.23
2023-05-08T01:42:50.071Z,7.00
2023-05-08T01:45:26.649Z,7.37
2023-05-08T01:48:03.759Z,7.00
2023-05-08T01:50:34.480Z,7.40
2023-05-08T01:53:31.874Z,7.53
2023-05-08T01:56:01.164Z,7.47
2023-05-08T01:58:29.760Z,7.70
2023-05-08T02:00:57.418Z,7.60
2023-05-08T02:03:25.139Z,7.10
2023-05-08T02:05:52.484Z,7.63
2023-05-08T02:08:20.368Z,7.23
2023-05-08T02:10:49.116Z,7.63
2023-05-08T02:13:19.138Z,7.63
2023-05-08T02:15:50.225Z,7.00
2023-05-08T02:18:19.915Z,7.23
2023-05-08T02:20:47.254Z,7.20
2023-05-08T02:23:15.790Z,7.37
2023-05-08T02:25:43.643Z,7.53
2023-05-08T02:28:11.610Z,7.47
2023-05-08T02:30:39.627Z,7.90
2023-05-08T02:33:08.998Z,7.77
2023-05-08T02:35:36.730Z,7.63
2023-05-08T02:38:04.492Z,8.17
2023-05-08T02:40:32.063Z,7.47
2023-05-08T02:42:59.291Z,7.83
2023-05-08T02:45:27.511Z,7.97
2023-05-08T02:48:01.065Z,7.20
2023-05-08T02:50:33.509Z,7.77
2023-05-08T02:53:08.941Z,7.07
2023-05-08T02:55:41.192Z,7.43
2023-05-08T02:58:11.410Z,7.73
2023-05-08T03:00:57.526Z,7.67
2023-05-08T03:03:27.033Z,7.80
2023-05-08T03:05:58.456Z,7.87
2023-05-08T03:08:31.166Z,7.87
2023-05-08T03:10:59.775Z,7.97
2023-05-08T03:13:29.369Z,7.43
2023-05-08T03:15:57.945Z,7.43
2023-05-08T03:18:29.481Z,7.13
2023-05-08T03:20:58.775Z,7.10
2023-05-08T03:23:28.123Z,7.20
2023-05-08T03:25:55.958Z,7.70
2023-05-08T03:28:23.392Z,7.60
2023-05-08T03:30:51.706Z,8.43
2023-05-08T03:33:19.016Z,7.80
2023-05-08T03:35:46.718Z,7.30
2023-05-08T03:38:14.085Z,7.77
2023-05-08T03:40:47.462Z,7.60
2023-05-08T03:43:15.862Z,7.60
2023-05-08T03:45:42.943Z,7.70
2023-05-08T03:48:10.356Z,7.50
2023-05-08T03:50:37.938Z,8.00
2023-05-08T03:53:05.239Z,8.27
2023-05-08T03:55:32.869Z,7.87
2023-05-08T03:58:15.312Z,8.03
2023-05-08T04:00:49.013Z,7.50
2023-05-08T04:03:33.230Z,7.80
2023-05-08T04:06:20.713Z,8.10
2023-05-08T04:08:56.038Z,8.23
2023-05-08T04:11:38.310Z,7.60
2023-05-08T04:14:08.732Z,7.67
2023-05-08T04:16:40.797Z,8.00
2023-05-08T04:19:10.501Z,7.73
2023-05-08T04:21:39.894Z,7.97
2023-05-08T04:24:08.551Z,8.67
2023-05-08T04:26:35.795Z,8.67
2023-05-08T04:29:03.281Z,8.30
2023-05-08T04:31:31.155Z,8.40
2023-05-08T04:33:58.820Z,8.40
2023-05-08T04:36:29.414Z,8.47
2023-05-08T04:38:56.872Z,8.90
2023-05-08T04:41:24.911Z,8.83
2023-05-08T04:43:52.060Z,8.60
2023-05-08T04:46:19.233Z,8.13
2023-05-08T04:48:46.391Z,8.40
2023-05-08T04:51:13.494Z,8.43
2023-05-08T04:53:40.641Z,8.60
2023-05-08T04:56:07.790Z,8.07
2023-05-08T04:58:34.931Z,9.30
2023-05-08T05:01:05.548Z,8.87
2023-05-08T05:03:32.746Z,9.00
2023-05-08T05:06:00.408Z,9.20
2023-05-08T05:08:27.952Z,8.90
2023-05-08T05:10:55.126Z,9.40
2023-05-08T05:13:22.327Z,9.10
2023-05-08T05:15:51.436Z,8.17
2023-05-08T05:18:18.677Z,8.70
2023-05-08T05:20:46.204Z,7.20
2023-05-08T05:23:13.382Z,7.90
2023-05-08T05:25:40.490Z,7.97
2023-05-08T05:28:07.615Z,7.90
2023-05-08T05:30:34.719Z,8.20
2023-05-08T05:33:01.923Z,8.67
2023-05-08T05:35:29.266Z,9.00
2023-05-08T05:37:56.370Z,9.00
2023-05-08T05:40:23.489Z,9.00
2023-05-08T05:42:51.048Z,9.40
2023-05-08T05:45:18.522Z,9.13
2023-05-08T05:47:50.069Z,8.37
2023-05-08T05:50:18.695Z,8.70
2023-05-08T05:52:46.182Z,8.47
2023-05-08T05:55:13.693Z,9.00
2023-05-08T05:57:41.423Z,8.57
2023-05-08T06:00:09.201Z,8.83
2023-05-08T06:02:37.222Z,9.27
2023-05-08T06:05:04.945Z,9.03
2023-05-08T06:07:32.142Z,9.73
2023-05-08T06:09:59.744Z,9.47
2023-05-08T06:12:28.342Z,10.90
2023-05-08T06:14:56.129Z,9.80
2023-05-08T06:17:23.321Z,9.30
2023-05-08T06:19:53.902Z,9.33
2023-05-08T06:22:24.365Z,10.10
2023-05-08T06:24:54.948Z,10.03
2023-05-08T06:27:22.833Z,9.43
2023-05-08T06:29:53.487Z,9.07
2023-05-08T06:32:21.312Z,9.13
2023-05-08T06:34:48.913Z,8.63
2023-05-08T06:37:16.226Z,8.50
2023-05-08T06:39:43.505Z,8.90
2023-05-08T06:42:10.887Z,8.50
2023-05-08T06:44:38.041Z,7.97
2023-05-08T06:47:05.154Z,7.77
2023-05-08T06:49:32.482Z,6.57
2023-05-08T06:51:59.633Z,7.67
2023-05-08T06:54:26.774Z,7.13
2023-05-08T06:56:54.295Z,7.17
2023-05-08T06:59:23.258Z,7.20
2023-05-08T07:01:50.909Z,6.37
2023-05-08T07:04:18.132Z,7.10
2023-05-08T07:06:45.263Z,7.13
2023-05-08T07:09:12.729Z,7.20
2023-05-08T07:11:39.839Z,6.33
2023-05-08T07:14:07.049Z,6.73
2023-05-08T07:16:34.343Z,6.53
2023-05-08T07:19:01.506Z,6.60
2023-05-08T07:21:29.470Z,6.60
2023-05-08T07:23:56.671Z,7.27
2023-05-08T07:26:23.921Z,6.73
2023-05-08T07:28:51.302Z,7.00
2023-05-08T07:31:18.525Z,6.90
2023-05-08T07:33:46.895Z,6.23
2023-05-08T07:36:14.089Z,6.23
2023-05-08T07:38:41.268Z,6.87
2023-05-08T07:41:08.593Z,6.10
2023-05-08T07:43:35.834Z,6.40
2023-05-08T07:46:02.970Z,6.40
2023-05-08T07:48:30.098Z,6.30
2023-05-08T07:50:57.264Z,6.43
2023-05-08T07:53:24.357Z,6.10
2023-05-08T07:55:51.461Z,6.40
2023-05-08T07:58:18.546Z,6.10
2023-05-08T08:00:45.703Z,6.57
2023-05-08T08:03:12.875Z,6.57
2023-05-08T08:05:40.064Z,6.43
2023-05-08T08:08:07.268Z,6.37
2023-05-08T08:10:34.388Z,6.53
2023-05-08T08:13:04.420Z,6.30
2023-05-08T08:15:31.545Z,7.00
2023-05-08T08:17:58.753Z,6.53
2023-05-08T08:20:25.918Z,6.70
2023-05-08T08:22:53.539Z,6.50
2023-05-08T08:25:20.892Z,6.22
2023-05-08T08:27:48.041Z,6.50
2023-05-08T08:30:17.971Z,6.47
2023-05-08T08:32:47.484Z,6.65
2023-05-08T08:35:15.037Z,5.95
2023-05-08T08:37:43.034Z,7.00
2023-05-08T08:40:10.301Z,6.50
2023-05-08T08:42:37.481Z,6.45
2023-05-08T08:45:04.795Z,6.65
2023-05-08T08:47:37.557Z,6.45
2023-05-08T08:50:05.589Z,5.78
2023-05-08T08:53:08.821Z,6.90
2023-05-08T08:55:37.943Z,6.80
2023-05-08T08:58:16.150Z,6.65
2023-05-08T09:00:43.755Z,6.85
2023-05-08T09:03:11.222Z,6.85
2023-05-08T09:05:38.838Z,6.53
2023-05-08T09:08:07.204Z,7.32
2023-05-08T09:10:36.319Z,6.85
2023-05-08T09:13:06.349Z,6.53
2023-05-08T09:15:33.890Z,6.88
2023-05-08T09:18:04.333Z,6.32
2023-05-08T09:20:31.621Z,6.60
2023-05-08T09:22:58.846Z,6.30
2023-05-08T09:25:25.951Z,6.90
2023-05-08T09:27:53.127Z,6.63
2023-05-08T09:30:20.430Z,7.00
2023-05-08T09:32:47.734Z,6.55
2023-05-08T09:35:15.115Z,6.38
2023-05-08T09:37:43.674Z,6.22
2023-05-08T09:40:17.050Z,6.47
2023-05-08T09:42:44.247Z,6.90
2023-05-08T09:45:12.016Z,7.20
2023-05-08T09:47:40.172Z,7.22
2023-05-08T09:50:11.388Z,7.72
2023-05-08T09:52:39.461Z,7.07
2023-05-08T09:55:08.007Z,7.30
2023-05-08T09:57:38.239Z,7.43
2023-05-08T10:00:09.892Z,7.65
2023-05-08T10:02:37.808Z,7.18
2023-05-08T10:05:23.014Z,8.38
2023-05-08T10:07:50.331Z,7.68
2023-05-08T10:10:23.109Z,8.02
2023-05-08T10:12:50.319Z,8.50
2023-05-08T10:15:17.602Z,9.02
2023-05-08T10:18:07.804Z,8.30
2023-05-08T10:20:35.992Z,8.45
2023-05-08T10:23:03.914Z,7.60
2023-05-08T10:25:33.876Z,9.38
2023-05-08T10:28:17.390Z,8.65
2023-05-08T10:30:48.232Z,9.43
2023-05-08T10:33:17.989Z,9.27
2023-05-08T10:35:46.366Z,8.90
2023-05-08T10:38:14.707Z,9.32
2023-05-08T10:40:42.305Z,9.23
2023-05-08T10:43:10.186Z,8.68
2023-05-08T10:45:37.894Z,9.35
2023-05-08T10:48:09.333Z,9.63
2023-05-08T10:50:56.513Z,9.50
2023-05-08T10:53:42.494Z,10.30
2023-05-08T10:56:09.706Z,9.43
2023-05-08T10:58:39.335Z,9.20
2023-05-08T11:01:09.707Z,10.07
2023-05-08T11:03:40.312Z,10.02
2023-05-08T11:06:07.517Z,9.98
2023-05-08T11:08:43.727Z,10.43
2023-05-08T11:11:33.363Z,10.97
2023-05-08T11:14:09.681Z,10.40
2023-05-08T11:16:55.120Z,10.80
2023-05-08T11:19:23.647Z,10.90
2023-05-08T11:22:09.495Z,11.93
2023-05-08T11:24:36.906Z,12.17
2023-05-08T11:27:04.181Z,11.23
2023-05-08T11:29:31.270Z,11.63
2023-05-08T11:31:58.544Z,12.03
2023-05-08T11:34:44.221Z,12.40
2023-05-08T11:37:21.178Z,12.83
2023-05-08T11:39:49.043Z,13.83
2023-05-08T11:42:25.491Z,13.13
2023-05-08T11:45:13.820Z,13.00
2023-05-08T11:47:46.155Z,13.03
2023-05-08T11:50:14.464Z,13.40
2023-05-08T11:52:43.021Z,13.80
2023-05-08T11:55:10.927Z,13.20
2023-05-08T11:57:38.321Z,13.43
2023-05-08T12:00:09.952Z,13.33
2023-05-08T12:02:40.977Z,14.20
2023-05-08T12:05:08.784Z,13.77
2023-05-08T12:07:49.084Z,14.43
2023-05-08T12:10:17.099Z,14.37
2023-05-08T12:12:45.154Z,14.17
2023-05-08T12:15:13.700Z,14.07
2023-05-08T12:17:41.325Z,14.53
2023-05-08T12:20:18.808Z,14.93
2023-05-08T12:22:52.982Z,14.83
2023-05-08T12:25:20.461Z,15.80
2023-05-08T12:27:47.774Z,16.00
2023-05-08T12:30:15.589Z,15.97
2023-05-08T12:32:43.671Z,15.67
2023-05-08T12:35:11.504Z,14.57
2023-05-08T12:37:38.939Z,15.30
2023-05-08T12:40:06.440Z,14.60
2023-05-08T12:42:50.077Z,15.07
2023-05-08T12:45:23.481Z,14.70
2023-05-08T12:47:51.767Z,14.93
2023-05-08T12:50:25.196Z,14.47
2023-05-08T12:52:52.708Z,14.50
2023-05-08T12:55:23.098Z,14.30
2023-05-08T12:58:06.839Z,14.93
2023-05-08T13:00:37.788Z,13.82
2023-05-08T13:03:05.484Z,12.82
2023-05-08T13:05:32.869Z,14.10
2023-05-08T13:08:07.434Z,12.88
2023-05-08T13:11:04.005Z,13.35
2023-05-08T13:13:32.152Z,13.45
2023-05-08T13:16:02.530Z,13.07
2023-05-08T13:18:30.599Z,13.45
2023-05-08T13:20:58.003Z,12.25
2023-05-08T13:23:25.128Z,13.25
2023-05-08T13:25:52.342Z,12.95
2023-05-08T13:28:19.528Z,14.15
2023-05-08T13:30:46.714Z,15.38
2023-05-08T13:33:13.916Z,13.90
2023-05-08T13:35:41.091Z,12.68
2023-05-08T13:38:08.234Z,14.48
2023-05-08T13:40:35.359Z,13.85
2023-05-08T13:43:02.456Z,14.70
2023-05-08T13:45:29.773Z,14.73
2023-05-08T13:47:57.047Z,14.38
2023-05-08T13:50:24.310Z,14.13
2023-05-08T13:52:54.435Z,14.38
2023-05-08T13:55:23.105Z,12.95
2023-05-08T13:57:50.727Z,12.90
2023-05-08T14:00:18.256Z,12.63
2023-05-08T14:02:45.622Z,13.27
2023-05-08T14:05:13.235Z,13.20
2023-05-08T14:07:40.670Z,12.95
2023-05-08T14:10:08.203Z,13.63
2023-05-08T14:12:38.226Z,13.85
2023-05-08T14:15:05.860Z,13.55
2023-05-08T14:17:33.221Z,14.20
2023-05-08T14:20:00.512Z,13.20
2023-05-08T14:22:27.760Z,14.43
2023-05-08T14:24:54.929Z,14.80
2023-05-08T14:27:22.331Z,14.35
2023-05-08T14:29:49.583Z,13.90
2023-05-08T14:32:16.765Z,13.55
2023-05-08T14:34:44.488Z,13.43
2023-05-08T14:37:12.960Z,15.07
2023-05-08T14:39:40.139Z,14.35
2023-05-08T14:42:22.356Z,14.85
2023-05-08T14:44:50.481Z,14.20
2023-05-08T14:47:17.782Z,13.52
2023-05-08T14:49:44.894Z,13.27
2023-05-08T14:52:12.009Z,14.05
2023-05-08T14:54:39.526Z,14.10
2023-05-08T14:57:06.855Z,13.43
2023-05-08T14:59:33.988Z,13.32
2023-05-08T15:02:01.297Z,14.40
2023-05-08T15:04:28.446Z,14.05
2023-05-08T15:06:55.605Z,15.02
2023-05-08T15:09:22.720Z,14.30
2023-05-08T15:11:49.857Z,14.07
2023-05-08T15:14:16.986Z,14.38
2023-05-08T15:16:44.183Z,13.27
2023-05-08T15:19:11.366Z,13.52
2023-05-08T15:21:38.503Z,13.43
2023-05-08T15:24:05.712Z,14.38
2023-05-08T15:26:32.893Z,13.75
2023-05-08T15:29:00.023Z,14.02
2023-05-08T15:31:27.174Z,14.10
2023-05-08T15:33:54.653Z,13.80
2023-05-08T15:36:21.838Z,14.02
2023-05-08T15:38:53.865Z,14.15
2023-05-08T15:41:21.791Z,13.00
2023-05-08T15:43:48.880Z,14.15
2023-05-08T15:46:16.128Z,13.35
2023-05-08T15:48:43.569Z,13.80
2023-05-08T15:51:11.584Z,14.05
2023-05-08T15:53:38.720Z,14.10
2023-05-08T15:56:06.392Z,14.25
2023-05-08T15:58:34.604Z,13.50
2023-05-08T16:01:01.928Z,14.10
2023-05-08T16:03:29.123Z,14.60
2023-05-08T16:05:56.519Z,13.63
2023-05-08T16:08:23.640Z,14.68
2023-05-08T16:10:50.808Z,14.20
2023-05-08T16:13:17.900Z,13.90
2023-05-08T16:15:45.047Z,14.30
2023-05-08T16:18:12.241Z,13.40
2023-05-08T16:20:40.727Z,13.90
2023-05-08T16:23:07.986Z,14.48
2023-05-08T16:25:35.103Z,14.45
2023-05-08T16:28:02.393Z,15.07
2023-05-08T16:30:29.799Z,14.75
2023-05-08T16:32:57.055Z,15.63
2023-05-08T16:35:24.243Z,14.85
2023-05-08T16:37:51.537Z,14.45
2023-05-08T16:40:18.658Z,14.60
2023-05-08T16:42:45.757Z,15.15
2023-05-08T16:45:13.454Z,15.10
2023-05-08T16:47:40.788Z,15.15
2023-05-08T16:50:08.262Z,14.85
2023-05-08T16:52:36.143Z,14.82
2023-05-08T16:55:03.285Z,15.50
2023-05-08T16:57:30.752Z,15.32
2023-05-08T16:59:57.956Z,16.02
2023-05-08T17:02:25.217Z,15.35
2023-05-08T17:04:52.455Z,15.43
2023-05-08T17:07:19.654Z,15.57
2023-05-08T17:09:49.185Z,15.25
2023-05-08T17:12:16.348Z,15.23
2023-05-08T17:14:43.476Z,16.20
2023-05-08T17:17:11.222Z,16.15
2023-05-08T17:19:38.566Z,16.10
2023-05-08T17:22:05.680Z,15.73
2023-05-08T17:24:33.290Z,15.63
2023-05-08T17:27:00.737Z,15.77
2023-05-08T17:29:27.900Z,15.40
2023-05-08T17:31:55.806Z,16.27
2023-05-08T17:34:23.251Z,16.25
2023-05-08T17:36:50.837Z,15.88
2023-05-08T17:39:21.865Z,15.80
2023-05-08T17:41:49.474Z,16.13
2023-05-08T17:44:16.944Z,15.18
2023-05-08T17:46:44.302Z,16.73
2023-05-08T17:49:11.761Z,16.92
2023-05-08T17:51:39.734Z,15.63
2023-05-08T17:54:06.842Z,16.02
2023-05-08T17:56:33.985Z,16.92
2023-05-08T17:59:01.098Z,15.90
2023-05-08T18:01:29.458Z,16.23
2023-05-08T18:03:56.747Z,15.63
2023-05-08T18:06:23.942Z,15.57
2023-05-08T18:08:51.072Z,16.33
2023-05-08T18:11:18.202Z,16.37
2023-05-08T18:13:45.414Z,16.97
2023-05-08T18:16:14.328Z,16.27
2023-05-08T18:18:41.591Z,16.33
2023-05-08T18:21:08.762Z,16.63
2023-05-08T18:23:35.962Z,16.83
2023-05-08T18:26:03.681Z,16.33
2023-05-08T18:28:30.961Z,16.07
2023-05-08T18:30:58.212Z,17.13
2023-05-08T18:33:25.465Z,16.83
2023-05-08T18:35:52.772Z,17.23
2023-05-08T18:38:20.142Z,16.30
2023-05-08T18:40:47.512Z,16.17
2023-05-08T18:43:14.614Z,17.17
2023-05-08T18:45:42.137Z,17.10
2023-05-08T18:48:09.835Z,17.10
2023-05-08T18:50:37.050Z,16.67
2023-05-08T18:53:04.302Z,16.73
2023-05-08T18:55:31.457Z,16.40
2023-05-08T18:57:58.555Z,17.27
2023-05-08T19:00:25.807Z,17.90
2023-05-08T19:02:53.091Z,17.50
2023-05-08T19:05:20.330Z,18.07
2023-05-08T19:07:47.413Z,17.10
2023-05-08T19:10:14.921Z,17.60
2023-05-08T19:12:42.902Z,18.27
2023-05-08T19:15:13.406Z,18.10
2023-05-08T19:17:41.274Z,17.03
2023-05-08T19:20:08.684Z,16.37
2023-05-08T19:22:36.089Z,15.47
2023-05-08T19:25:03.791Z,15.67
2023-05-08T19:27:32.131Z,15.13
2023-05-08T19:29:59.386Z,16.53
2023-05-08T19:32:26.547Z,16.17
2023-05-08T19:34:55.369Z,18.17
2023-05-08T19:37:22.564Z,18.83
2023-05-08T19:39:49.652Z,18.10
2023-05-08T19:42:16.846Z,17.83
2023-05-08T19:44:44.004Z,18.57
2023-05-08T19:47:11.150Z,19.10
2023-05-08T19:49:38.385Z,18.67
2023-05-08T19:52:05.731Z,18.53
2023-05-08T19:54:32.829Z,18.97
2023-05-08T19:56:59.948Z,18.23
2023-05-08T19:59:27.645Z,18.33
2023-05-08T20:01:54.889Z,18.70
2023-05-08T20:04:22.131Z,18.20
2023-05-08T20:06:49.217Z,17.67
2023-05-08T20:09:16.292Z,17.73
2023-05-08T20:11:43.412Z,17.93
2023-05-08T20:14:10.578Z,17.90
2023-05-08T20:16:37.788Z,18.23
2023-05-08T20:19:04.933Z,18.10
2023-05-08T20:21:33.825Z,17.73
2023-05-08T20:24:01.673Z,18.57
2023-05-08T20:26:29.481Z,17.10
2023-05-08T20:28:56.940Z,18.03
2023-05-08T20:31:25.716Z,17.03
2023-05-08T20:33:52.950Z,16.90
2023-05-08T20:36:20.344Z,17.07
2023-05-08T20:38:47.510Z,16.63
2023-05-08T20:41:14.624Z,16.33
2023-05-08T20:43:41.768Z,17.53
2023-05-08T20:46:09.931Z,16.70
2023-05-08T20:48:38.468Z,16.60
2023-05-08T20:51:05.880Z,17.70
2023-05-08T20:53:33.109Z,17.63
2023-05-08T20:56:01.029Z,18.10
2023-05-08T20:58:28.240Z,19.70
2023-05-08T21:00:55.531Z,19.70
2023-05-08T21:03:22.997Z,20.70
2023-05-08T21:05:50.402Z,20.07
2023-05-08T21:08:17.483Z,19.83
2023-05-08T21:10:44.570Z,19.50
2023-05-08T21:13:11.839Z,20.23
2023-05-08T21:15:39.006Z,21.30
2023-05-08T21:18:07.109Z,21.23
2023-05-08T21:20:34.244Z,21.60
2023-05-08T21:23:01.352Z,21.63
2023-05-08T21:25:28.519Z,20.83
2023-05-08T21:27:55.659Z,19.77
2023-05-08T21:30:22.759Z,19.63
2023-05-08T21:32:49.921Z,19.47
2023-05-08T21:35:17.473Z,20.23
2023-05-08T21:37:44.709Z,20.47
2023-05-08T21:40:11.944Z,20.73
2023-05-08T21:42:40.102Z,20.97
2023-05-08T21:45:07.347Z,20.87
2023-05-08T21:47:34.467Z,21.30
2023-05-08T21:50:01.580Z,21.43
2023-05-08T21:52:28.723Z,20.60
2023-05-08T21:54:55.962Z,20.97
2023-05-08T21:57:23.076Z,20.03
2023-05-08T21:59:50.803Z,20.97
2023-05-08T22:02:19.104Z,21.00
2023-05-08T22:04:46.207Z,20.20
2023-05-08T22:07:13.302Z,20.27
2023-05-08T22:09:40.374Z,20.50
2023-05-08T22:12:08.225Z,20.07
2023-05-08T22:14:35.388Z,20.97
2023-05-08T22:17:02.515Z,20.70
2023-05-08T22:19:29.605Z,21.07
2023-05-08T22:21:56.697Z,21.57
2023-05-08T22:24:24.498Z,21.37
2023-05-08T22:26:51.703Z,20.67
2023-05-08T22:29:18.816Z,20.13
2023-05-08T22:31:47.397Z,20.90
2023-05-08T22:34:14.943Z,21.43
2023-05-08T22:36:42.131Z,22.93
2023-05-08T22:39:12.939Z,21.67
2023-05-08T22:41:40.267Z,22.40
2023-05-08T22:44:07.521Z,21.97
2023-05-08T22:46:35.543Z,21.50
2023-05-08T22:49:02.864Z,22.03
2023-05-08T22:51:30.441Z,22.43
2023-05-08T22:53:57.600Z,21.83
2023-05-08T22:56:24.810Z,22.10
2023-05-08T22:58:54.641Z,22.47
2023-05-08T23:01:22.464Z,22.80
2023-05-08T23:03:52.367Z,22.87
2023-05-08T23:06:19.528Z,23.07
2023-05-08T23:08:46.709Z,23.37
2023-05-08T23:11:13.927Z,23.37
2023-05-08T23:13:41.053Z,23.20
2023-05-08T23:16:08.234Z,24.47
2023-05-08T23:18:35.532Z,23.80
2023-05-08T23:21:06.640Z,23.40
2023-05-08T23:23:33.904Z,23.60
2023-05-08T23:26:04.627Z,24.60
2023-05-08T23:28:33.333Z,24.57
2023-05-08T23:31:00.789Z,24.33
2023-05-08T23:33:28.149Z,24.53
2023-05-08T23:35:56.125Z,23.47
2023-05-08T23:38:23.682Z,24.07
2023-05-08T23:40:50.964Z,25.63
2023-05-08T23:43:18.408Z,26.07
2023-05-08T23:45:45.606Z,26.90
2023-05-08T23:48:12.799Z,26.13
2023-05-08T23:50:40.850Z,27.20
2023-05-08T23:53:08.183Z,25.90
2023-05-08T23:55:36.866Z,26.93
2023-05-08T23:58:04.292Z,26.90
